Anniston, Missouri
Current Conditions -  °F | °C
As of 10:35 AM on Monday 24 Nov 2014 (Local Time) from KCIR Reporting Station
Overcast Overcast  
Wind Chill: 44°   Ceiling: 3200
Heat Index: 49°   Visibility: 10mi
Dew Point: 37°   Wind: 10mph
Humidity: 64%   Direction: 230°SW
Pressure: 29.76"   Gusts: 20mph
Location:  36.83°N, 89.33°W
Report Text: KCIR 241635Z AUTO 23009G17KT 10SM OVC032 09/03 A2976 RMK AO2 T00920026
Loading
Personal Weather Stations






























Interactive Weather Map New forecast layout! Learn more

10-Day Weather Forecast

Advertisements
Track Severe Weather on mobile